Virtual Norwegian is not affiliated with Norwegian Air Shuttle in any way.
If you are looking for the real "Norwegian", or you wish to book Norwegian flights, please visit Norwegian.com


We use cookies to ensure you get the best experience on our website.   ACCEPT

SAEZ - EZE - Buenos Aires (Ministro Pistarini)

General Info Alternate Airport
ICAO: SAEZ Elevation: 67 ft ICAO: SABE
IATA: EZE Country: Argentina IATA: AEP
City: Buenos Aires Charts: Log in to view charts City: Buenos Aires
Name: Ministro Pistarini Hub: No Name Aeroparque Jorge Newbery
General Info
ICAO: SAEZ
IATA: EZE
City: Buenos Aires
Name: Ministro Pistarini
Elevation: 67 ft
Country: Argentina
Charts: Log in to view charts
Hub: No
 
Alternate Airport
ICAO: SABE
IATA: AEP
City: Buenos Aires
Name: Aeroparque Jorge Newbery

Weather
252100Z 26009KT CAVOK 09/00 Q1012 NOSIG
Weather
252100Z 26009KT CAVOK 09/00 Q1012 NOSIG

NOTAMs
NOTAMs currently unavailable.
NOTAMs
NOTAMs currently unavailable

Route map
Airport
Airport (hub)